createdAt,value
2023-05-05T00:01:37.795Z,0.82
2023-05-05T00:04:05.161Z,0.80
2023-05-05T00:06:33.965Z,1.20
2023-05-05T00:09:03.099Z,0.73
2023-05-05T00:11:30.322Z,0.65
2023-05-05T00:13:57.579Z,2.17
2023-05-05T00:16:24.829Z,1.20
2023-05-05T00:18:52.223Z,1.30
2023-05-05T00:21:19.467Z,1.00
2023-05-05T00:23:46.711Z,0.80
2023-05-05T00:26:14.003Z,0.93
2023-05-05T00:28:41.209Z,1.10
2023-05-05T00:31:08.516Z,0.80
2023-05-05T00:33:35.798Z,0.70
2023-05-05T00:36:03.245Z,1.13
2023-05-05T00:38:30.532Z,1.00
2023-05-05T00:40:57.759Z,1.20
2023-05-05T00:43:24.970Z,1.35
2023-05-05T00:45:57.513Z,1.10
2023-05-05T00:48:25.799Z,1.63
2023-05-05T00:50:53.144Z,1.40
2023-05-05T00:53:20.751Z,2.13
2023-05-05T00:55:47.942Z,2.70
2023-05-05T00:58:15.226Z,2.33
2023-05-05T01:00:42.586Z,2.47
2023-05-05T01:03:09.976Z,2.50
2023-05-05T01:05:43.531Z,2.30
2023-05-05T01:08:14.105Z,1.60
2023-05-05T01:10:54.648Z,1.98
2023-05-05T01:13:36.634Z,1.40
2023-05-05T01:16:15.059Z,1.55
2023-05-05T01:18:57.282Z,1.30
2023-05-05T01:21:31.697Z,1.00
2023-05-05T01:24:11.469Z,1.05
2023-05-05T01:26:51.400Z,1.38
2023-05-05T01:29:37.125Z,2.15
2023-05-05T01:32:07.677Z,1.08
2023-05-05T01:34:36.446Z,1.10
2023-05-05T01:37:10.949Z,1.42
2023-05-05T01:39:39.511Z,1.83
2023-05-05T01:42:13.805Z,1.60
2023-05-05T01:44:42.637Z,2.97
2023-05-05T01:47:11.084Z,2.13
2023-05-05T01:49:39.100Z,1.80
2023-05-05T01:52:06.866Z,1.45
2023-05-05T01:54:35.117Z,1.15
2023-05-05T01:57:04.923Z,0.90
2023-05-05T01:59:33.015Z,1.08
2023-05-05T02:02:00.954Z,1.23
2023-05-05T02:04:31.192Z,0.80
2023-05-05T02:06:59.423Z,1.13
2023-05-05T02:09:27.460Z,1.00
2023-05-05T02:11:55.264Z,1.00
2023-05-05T02:14:24.297Z,1.23
2023-05-05T02:16:52.090Z,0.77
2023-05-05T02:19:20.287Z,0.90
2023-05-05T02:21:47.479Z,1.50
2023-05-05T02:24:14.780Z,0.80
2023-05-05T02:26:44.122Z,0.77
2023-05-05T02:29:15.793Z,0.70
2023-05-05T02:31:45.153Z,0.70
2023-05-05T02:34:13.856Z,0.60
2023-05-05T02:36:42.823Z,0.80
2023-05-05T02:39:13.476Z,0.80
2023-05-05T02:41:42.177Z,0.80
2023-05-05T02:44:10.295Z,0.60
2023-05-05T02:46:39.002Z,0.60
2023-05-05T02:49:06.315Z,0.65
2023-05-05T02:51:33.638Z,0.63
2023-05-05T02:54:01.649Z,0.70
2023-05-05T02:56:41.208Z,0.85
2023-05-05T02:59:27.187Z,0.60
2023-05-05T03:01:57.673Z,0.73
2023-05-05T03:04:30.168Z,0.95
2023-05-05T03:06:58.810Z,0.60
2023-05-05T03:09:34.059Z,0.80
2023-05-05T03:12:03.818Z,0.50
2023-05-05T03:14:36.459Z,0.70
2023-05-05T03:17:03.818Z,0.70
2023-05-05T03:19:32.118Z,0.80
2023-05-05T03:21:59.855Z,1.17
2023-05-05T03:24:27.097Z,0.93
2023-05-05T03:26:54.495Z,0.70
2023-05-05T03:29:21.776Z,0.60
2023-05-05T03:31:49.699Z,0.68
2023-05-05T03:34:17.011Z,0.70
2023-05-05T03:36:44.241Z,1.00
2023-05-05T03:39:11.781Z,0.50
2023-05-05T03:41:38.992Z,0.60
2023-05-05T03:44:06.621Z,1.20
2023-05-05T03:46:33.849Z,0.90
2023-05-05T03:49:01.092Z,1.00
2023-05-05T03:51:28.361Z,0.70
2023-05-05T03:53:55.569Z,1.00
2023-05-05T03:56:22.758Z,0.90
2023-05-05T03:58:49.976Z,1.17
2023-05-05T04:01:17.172Z,1.10
2023-05-05T04:03:44.549Z,1.13
2023-05-05T04:06:11.821Z,0.95
2023-05-05T04:08:39.011Z,0.80
2023-05-05T04:11:06.368Z,1.10
2023-05-05T04:13:33.638Z,1.08
2023-05-05T04:16:00.874Z,0.70
2023-05-05T04:18:28.186Z,0.68
2023-05-05T04:20:55.586Z,0.57
2023-05-05T04:23:22.811Z,0.68
2023-05-05T04:25:50.003Z,0.70
2023-05-05T04:28:18.151Z,1.05
2023-05-05T04:30:46.290Z,0.80
2023-05-05T04:33:13.574Z,1.00
2023-05-05T04:35:40.952Z,0.70
2023-05-05T04:38:08.176Z,1.02
2023-05-05T04:40:39.230Z,0.70
2023-05-05T04:43:07.493Z,0.63
2023-05-05T04:45:34.685Z,0.60
2023-05-05T04:48:02.172Z,1.17
2023-05-05T04:50:29.396Z,0.60
2023-05-05T04:52:56.648Z,0.63
2023-05-05T04:55:23.888Z,0.65
2023-05-05T04:57:51.281Z,0.60
2023-05-05T05:00:18.514Z,0.65
2023-05-05T05:02:45.886Z,0.60
2023-05-05T05:05:13.202Z,0.60
2023-05-05T05:07:40.848Z,0.50
2023-05-05T05:10:08.683Z,0.70
2023-05-05T05:12:36.183Z,0.70
2023-05-05T05:15:03.527Z,0.80
2023-05-05T05:17:30.747Z,0.70
2023-05-05T05:20:01.674Z,0.80
2023-05-05T05:22:28.876Z,0.70
2023-05-05T05:24:56.121Z,0.98
2023-05-05T05:27:23.376Z,0.60
2023-05-05T05:29:51.358Z,0.60
2023-05-05T05:32:18.558Z,0.75
2023-05-05T05:34:45.761Z,0.98
2023-05-05T05:37:12.990Z,0.70
2023-05-05T05:39:42.002Z,0.70
2023-05-05T05:42:10.642Z,0.63
2023-05-05T05:44:37.832Z,0.80
2023-05-05T05:47:05.053Z,0.80
2023-05-05T05:49:32.299Z,1.23
2023-05-05T05:51:59.627Z,1.00
2023-05-05T05:54:26.985Z,0.90
2023-05-05T05:56:54.245Z,1.23
2023-05-05T05:59:21.448Z,1.42
2023-05-05T06:01:48.743Z,2.38
2023-05-05T06:04:16.020Z,2.08
2023-05-05T06:06:43.883Z,1.30
2023-05-05T06:09:11.088Z,1.77
2023-05-05T06:11:38.326Z,1.83
2023-05-05T06:14:05.580Z,1.67
2023-05-05T06:16:33.068Z,2.05
2023-05-05T06:19:00.485Z,2.30
2023-05-05T06:21:27.989Z,2.03
2023-05-05T06:23:55.364Z,3.63
2023-05-05T06:26:22.706Z,2.08
2023-05-05T06:28:49.909Z,2.38
2023-05-05T06:31:17.510Z,3.00
2023-05-05T06:33:44.769Z,2.17
2023-05-05T06:36:12.029Z,2.00
2023-05-05T06:38:39.413Z,2.28
2023-05-05T06:41:06.682Z,2.05
2023-05-05T06:43:33.889Z,2.20
2023-05-05T06:46:01.330Z,3.33
2023-05-05T06:48:28.599Z,1.98
2023-05-05T06:50:57.258Z,2.10
2023-05-05T06:53:24.488Z,2.47
2023-05-05T06:55:51.739Z,2.05
2023-05-05T06:58:18.989Z,2.75
2023-05-05T07:00:46.331Z,2.03
2023-05-05T07:03:14.729Z,2.08
2023-05-05T07:05:42.174Z,1.95
2023-05-05T07:08:09.674Z,2.45
2023-05-05T07:10:37.112Z,1.92
2023-05-05T07:13:04.431Z,2.95
2023-05-05T07:15:31.673Z,3.08
2023-05-05T07:17:58.986Z,1.90
2023-05-05T07:20:26.732Z,1.75
2023-05-05T07:22:54.144Z,2.03
2023-05-05T07:25:21.874Z,1.60
2023-05-05T07:27:49.138Z,2.50
2023-05-05T07:30:18.880Z,2.08
2023-05-05T07:32:46.749Z,1.75
2023-05-05T07:35:14.169Z,2.10
2023-05-05T07:37:41.372Z,1.77
2023-05-05T07:40:09.176Z,2.08
2023-05-05T07:42:36.639Z,2.20
2023-05-05T07:45:04.158Z,2.90
2023-05-05T07:47:31.495Z,2.13
2023-05-05T07:49:58.797Z,1.85
2023-05-05T07:52:43.656Z,2.47
2023-05-05T07:55:12.238Z,1.98
2023-05-05T07:57:39.723Z,1.60
2023-05-05T08:00:07.527Z,1.50
2023-05-05T08:02:34.962Z,2.20
2023-05-05T08:05:02.389Z,3.17
2023-05-05T08:07:29.598Z,3.33
2023-05-05T08:09:56.851Z,2.72
2023-05-05T08:12:24.051Z,1.30
2023-05-05T08:14:51.685Z,1.77
2023-05-05T08:17:19.005Z,1.20
2023-05-05T08:19:46.194Z,1.10
2023-05-05T08:22:14.119Z,1.30
2023-05-05T08:24:41.387Z,1.55
2023-05-05T08:27:08.573Z,0.90
2023-05-05T08:29:35.910Z,1.20
2023-05-05T08:32:03.177Z,1.52
2023-05-05T08:34:30.519Z,1.88
2023-05-05T08:36:57.821Z,0.98
2023-05-05T08:39:25.069Z,0.93
2023-05-05T08:41:52.268Z,1.00
2023-05-05T08:44:19.714Z,1.48
2023-05-05T08:46:47.141Z,1.02
2023-05-05T08:49:16.369Z,2.38
2023-05-05T08:51:44.409Z,0.70
2023-05-05T08:54:15.372Z,0.77
2023-05-05T08:56:43.494Z,0.70
2023-05-05T08:59:11.954Z,1.10
2023-05-05T09:01:40.109Z,0.85
2023-05-05T09:04:08.503Z,0.90
2023-05-05T09:06:37.285Z,0.80
2023-05-05T09:09:04.666Z,0.75
2023-05-05T09:11:33.354Z,0.75
2023-05-05T09:14:01.771Z,0.90
2023-05-05T09:16:29.050Z,0.80
2023-05-05T09:19:05.775Z,1.02
2023-05-05T09:21:33.150Z,2.63
2023-05-05T09:24:11.150Z,0.70
2023-05-05T09:26:46.207Z,0.93
2023-05-05T09:29:23.275Z,0.98
2023-05-05T09:32:08.535Z,1.33
2023-05-05T09:34:36.457Z,0.80
2023-05-05T09:37:04.091Z,0.50
2023-05-05T09:39:31.425Z,0.70
2023-05-05T09:41:58.646Z,0.70
2023-05-05T09:44:35.583Z,0.60
2023-05-05T09:47:05.384Z,1.15
2023-05-05T09:49:36.274Z,1.05
2023-05-05T09:52:14.301Z,2.05
2023-05-05T09:54:42.146Z,0.70
2023-05-05T09:57:09.600Z,0.77
2023-05-05T09:59:38.996Z,1.48
2023-05-05T10:02:13.015Z,0.90
2023-05-05T10:04:40.660Z,0.68
2023-05-05T10:07:07.948Z,1.67
2023-05-05T10:09:35.279Z,0.50
2023-05-05T10:12:02.501Z,0.60
2023-05-05T10:14:32.180Z,0.85
2023-05-05T10:17:00.976Z,0.52
2023-05-05T10:19:29.165Z,0.70
2023-05-05T10:22:00.206Z,0.70
2023-05-05T10:24:34.430Z,1.05
2023-05-05T10:27:03.326Z,0.82
2023-05-05T10:29:33.177Z,0.70
2023-05-05T10:32:18.893Z,1.30
2023-05-05T10:35:01.584Z,1.15
2023-05-05T10:37:29.658Z,0.93
2023-05-05T10:40:00.127Z,0.75
2023-05-05T10:42:27.829Z,0.90
2023-05-05T10:44:55.108Z,0.63
2023-05-05T10:47:23.235Z,0.60
2023-05-05T10:50:09.193Z,1.38
2023-05-05T10:52:36.599Z,0.60
2023-05-05T10:55:03.818Z,2.15
2023-05-05T10:57:33.445Z,0.68
2023-05-05T11:00:00.837Z,1.80
2023-05-05T11:02:31.458Z,0.60
2023-05-05T11:05:28.232Z,1.05
2023-05-05T11:07:55.429Z,0.60
2023-05-05T11:10:23.721Z,0.40
2023-05-05T11:13:06.027Z,0.88
2023-05-05T11:15:37.376Z,1.38
2023-05-05T11:18:07.802Z,0.40
2023-05-05T11:20:43.359Z,1.30
2023-05-05T11:23:10.559Z,0.90
2023-05-05T11:25:39.017Z,1.20
2023-05-05T11:28:06.780Z,0.40
2023-05-05T11:30:34.038Z,0.40
2023-05-05T11:33:20.110Z,0.57
2023-05-05T11:35:57.202Z,0.32
2023-05-05T11:38:27.581Z,1.27
2023-05-05T11:40:59.809Z,0.38
2023-05-05T11:43:27.000Z,1.02
2023-05-05T11:46:13.058Z,0.47
2023-05-05T11:48:50.211Z,1.17
2023-05-05T11:51:18.314Z,1.00
2023-05-05T11:53:46.414Z,0.40
2023-05-05T11:56:18.985Z,0.50
2023-05-05T11:58:46.807Z,1.00
2023-05-05T12:01:14.243Z,0.60
2023-05-05T12:03:41.973Z,0.85
2023-05-05T12:06:09.433Z,0.47
2023-05-05T12:08:39.967Z,0.50
2023-05-05T12:11:11.742Z,0.50
2023-05-05T12:13:38.959Z,0.52
2023-05-05T12:16:13.059Z,0.73
2023-05-05T12:18:40.851Z,1.88
2023-05-05T12:21:34.268Z,0.50
2023-05-05T12:24:01.764Z,1.95
2023-05-05T12:26:32.282Z,1.23
2023-05-05T12:28:59.857Z,1.42
2023-05-05T12:31:40.196Z,0.50
2023-05-05T12:34:08.519Z,0.50
2023-05-05T12:36:36.355Z,0.60
2023-05-05T12:39:05.043Z,0.50
2023-05-05T12:41:32.854Z,0.47
2023-05-05T12:44:00.698Z,1.65
2023-05-05T12:46:29.761Z,0.60
2023-05-05T12:49:05.452Z,0.57
2023-05-05T12:51:36.353Z,0.50
2023-05-05T12:54:03.650Z,0.40
2023-05-05T12:56:34.822Z,1.02
2023-05-05T12:59:06.513Z,0.60
2023-05-05T13:01:34.693Z,0.80
2023-05-05T13:04:09.642Z,1.38
2023-05-05T13:06:37.795Z,0.60
2023-05-05T13:09:05.780Z,0.50
2023-05-05T13:11:37.290Z,0.95
2023-05-05T13:14:04.908Z,0.50
2023-05-05T13:16:32.156Z,0.88
2023-05-05T13:18:59.412Z,0.55
2023-05-05T13:21:26.628Z,2.35
2023-05-05T13:23:54.820Z,1.08
2023-05-05T13:26:25.065Z,1.23
2023-05-05T13:28:52.293Z,0.82
2023-05-05T13:31:19.599Z,0.68
2023-05-05T13:33:46.915Z,1.17
2023-05-05T13:36:14.171Z,0.60
2023-05-05T13:38:41.420Z,0.47
2023-05-05T13:41:08.659Z,0.70
2023-05-05T13:43:35.898Z,0.70
2023-05-05T13:46:16.501Z,0.68
2023-05-05T13:48:46.859Z,0.57
2023-05-05T13:51:14.165Z,0.75
2023-05-05T13:53:43.806Z,1.10
2023-05-05T13:56:11.169Z,0.95
2023-05-05T13:58:38.413Z,0.50
2023-05-05T14:01:05.702Z,1.10
2023-05-05T14:03:33.011Z,0.40
2023-05-05T14:06:00.372Z,1.35
2023-05-05T14:08:27.582Z,0.73
2023-05-05T14:10:54.846Z,1.73
2023-05-05T14:13:22.098Z,0.73
2023-05-05T14:15:50.731Z,0.80
2023-05-05T14:18:18.001Z,0.40
2023-05-05T14:20:45.246Z,0.68
2023-05-05T14:23:12.505Z,0.80
2023-05-05T14:25:39.754Z,0.63
2023-05-05T14:28:07.385Z,0.50
2023-05-05T14:30:34.618Z,0.50
2023-05-05T14:33:02.048Z,0.40
2023-05-05T14:35:29.291Z,0.68
2023-05-05T14:37:56.544Z,0.82
2023-05-05T14:40:23.901Z,0.38
2023-05-05T14:42:51.093Z,0.60
2023-05-05T14:45:18.707Z,0.57
2023-05-05T14:47:45.972Z,0.70
2023-05-05T14:50:47.422Z,0.93
2023-05-05T14:53:14.639Z,0.45
2023-05-05T14:55:41.904Z,0.40
2023-05-05T14:58:10.114Z,0.50
2023-05-05T15:00:37.457Z,0.52
2023-05-05T15:03:04.792Z,0.60
2023-05-05T15:05:32.036Z,1.55
2023-05-05T15:07:59.243Z,0.70
2023-05-05T15:10:26.590Z,0.70
2023-05-05T15:12:53.810Z,1.10
2023-05-05T15:15:21.126Z,0.75
2023-05-05T15:17:48.396Z,1.00
2023-05-05T15:20:15.717Z,0.43
2023-05-05T15:22:42.949Z,1.23
2023-05-05T15:25:12.471Z,0.68
2023-05-05T15:27:40.359Z,0.55
2023-05-05T15:30:08.067Z,1.30
2023-05-05T15:32:35.419Z,0.75
2023-05-05T15:35:02.998Z,0.40
2023-05-05T15:37:30.354Z,0.70
2023-05-05T15:39:57.560Z,0.82
2023-05-05T15:42:24.857Z,0.70
2023-05-05T15:44:52.464Z,0.70
2023-05-05T15:47:19.694Z,0.60
2023-05-05T15:49:46.945Z,0.98
2023-05-05T15:52:14.253Z,0.57
2023-05-05T15:54:41.514Z,0.60
2023-05-05T15:57:08.718Z,0.40
2023-05-05T15:59:36.065Z,1.33
2023-05-05T16:02:03.415Z,0.50
2023-05-05T16:04:30.847Z,1.00
2023-05-05T16:06:58.255Z,1.08
2023-05-05T16:09:25.576Z,0.73
2023-05-05T16:11:54.525Z,0.40
2023-05-05T16:14:21.968Z,1.00
2023-05-05T16:16:49.341Z,0.77
2023-05-05T16:19:16.640Z,0.45
2023-05-05T16:21:44.131Z,0.98
2023-05-05T16:24:16.007Z,1.15
2023-05-05T16:26:43.722Z,0.60
2023-05-05T16:29:11.341Z,1.98
2023-05-05T16:31:38.764Z,0.73
2023-05-05T16:34:06.074Z,1.65
2023-05-05T16:36:33.307Z,1.95
2023-05-05T16:39:00.534Z,0.68
2023-05-05T16:41:27.840Z,0.98
2023-05-05T16:43:55.345Z,0.77
2023-05-05T16:46:22.690Z,0.43
2023-05-05T16:48:50.026Z,0.40
2023-05-05T16:51:17.248Z,0.45
2023-05-05T16:53:44.558Z,1.05
2023-05-05T16:56:12.875Z,0.98
2023-05-05T16:58:40.370Z,0.40
2023-05-05T17:01:07.651Z,0.50
2023-05-05T17:03:34.939Z,0.77
2023-05-05T17:06:02.285Z,0.40
2023-05-05T17:08:29.598Z,0.50
2023-05-05T17:10:56.813Z,1.33
2023-05-05T17:13:24.339Z,0.57
2023-05-05T17:15:51.871Z,1.13
2023-05-05T17:18:21.218Z,0.47
2023-05-05T17:20:50.064Z,0.70
2023-05-05T17:23:17.268Z,0.52
2023-05-05T17:25:44.588Z,1.27
2023-05-05T17:28:11.824Z,0.50
2023-05-05T17:30:39.037Z,0.40
2023-05-05T17:33:06.361Z,0.50
2023-05-05T17:35:33.602Z,0.50
2023-05-05T17:38:00.808Z,1.23
2023-05-05T17:40:28.204Z,0.80
2023-05-05T17:42:55.455Z,2.70
2023-05-05T17:45:22.684Z,0.68
2023-05-05T17:47:49.981Z,0.82
2023-05-05T17:50:17.300Z,0.47
2023-05-05T17:52:46.423Z,2.58
2023-05-05T17:55:13.688Z,0.40
2023-05-05T17:57:40.875Z,0.40
2023-05-05T18:00:08.933Z,0.50
2023-05-05T18:02:37.160Z,0.40
2023-05-05T18:05:04.923Z,0.63
2023-05-05T18:07:33.695Z,0.73
2023-05-05T18:10:00.917Z,0.70
2023-05-05T18:12:28.205Z,0.50
2023-05-05T18:14:55.407Z,0.38
2023-05-05T18:17:22.719Z,0.57
2023-05-05T18:19:50.100Z,0.55
2023-05-05T18:22:17.557Z,0.90
2023-05-05T18:24:44.867Z,0.43
2023-05-05T18:27:12.312Z,0.47
2023-05-05T18:29:39.532Z,0.52
2023-05-05T18:32:07.366Z,0.20
2023-05-05T18:34:34.959Z,0.55
2023-05-05T18:37:02.738Z,0.52
2023-05-05T18:39:30.332Z,0.98
2023-05-05T18:41:57.565Z,0.65
2023-05-05T18:44:24.762Z,1.65
2023-05-05T18:46:52.229Z,0.95
2023-05-05T18:49:19.547Z,0.40
2023-05-05T18:51:46.945Z,0.40
2023-05-05T18:54:14.294Z,0.50
2023-05-05T18:56:42.315Z,0.40
2023-05-05T18:59:09.517Z,1.15
2023-05-05T19:01:36.788Z,1.23
2023-05-05T19:04:05.457Z,0.85
2023-05-05T19:06:36.093Z,0.40
2023-05-05T19:09:04.056Z,1.15
2023-05-05T19:11:31.299Z,1.55
2023-05-05T19:13:58.545Z,0.30
2023-05-05T19:16:27.681Z,0.30
2023-05-05T19:18:58.747Z,0.70
2023-05-05T19:21:27.320Z,0.55
2023-05-05T19:23:54.514Z,0.98
2023-05-05T19:26:21.966Z,0.30
2023-05-05T19:28:49.247Z,0.80
2023-05-05T19:31:16.443Z,0.40
2023-05-05T19:33:45.653Z,1.42
2023-05-05T19:36:13.856Z,0.65
2023-05-05T19:38:44.365Z,0.30
2023-05-05T19:41:12.319Z,0.43
2023-05-05T19:43:39.589Z,0.40
2023-05-05T19:46:06.944Z,0.52
2023-05-05T19:48:34.225Z,0.60
2023-05-05T19:51:01.765Z,0.55
2023-05-05T19:53:28.976Z,0.50
2023-05-05T19:55:56.691Z,0.45
2023-05-05T19:58:23.980Z,0.50
2023-05-05T20:00:51.220Z,0.40
2023-05-05T20:03:18.536Z,0.52
2023-05-05T20:05:45.909Z,0.30
2023-05-05T20:08:13.161Z,0.20
2023-05-05T20:10:40.503Z,0.30
2023-05-05T20:13:07.814Z,0.20
2023-05-05T20:15:35.192Z,0.20
2023-05-05T20:18:02.556Z,0.45
2023-05-05T20:20:29.900Z,0.22
2023-05-05T20:22:57.196Z,0.40
2023-05-05T20:25:24.504Z,0.30
2023-05-05T20:27:51.728Z,0.30
2023-05-05T20:30:18.950Z,0.30
2023-05-05T20:32:46.223Z,0.35
2023-05-05T20:35:13.600Z,0.40
2023-05-05T20:37:40.851Z,0.57
2023-05-05T20:40:08.660Z,0.40
2023-05-05T20:42:37.024Z,0.40
2023-05-05T20:45:04.936Z,0.40
2023-05-05T20:47:32.205Z,0.43
2023-05-05T20:49:59.830Z,0.35
2023-05-05T20:52:27.061Z,0.52
2023-05-05T20:54:54.297Z,0.30
2023-05-05T20:57:21.527Z,0.80
2023-05-05T20:59:48.739Z,0.57
2023-05-05T21:02:16.037Z,1.23
2023-05-05T21:04:43.273Z,0.50
2023-05-05T21:07:10.504Z,0.40
2023-05-05T21:09:37.713Z,0.52
2023-05-05T21:12:05.097Z,0.60
2023-05-05T21:14:32.288Z,0.55
2023-05-05T21:16:59.541Z,0.40
2023-05-05T21:19:26.814Z,0.40
2023-05-05T21:21:54.028Z,0.60
2023-05-05T21:24:21.482Z,0.82
2023-05-05T21:26:48.702Z,0.50
2023-05-05T21:29:15.921Z,0.60
2023-05-05T21:31:43.165Z,0.57
2023-05-05T21:34:10.525Z,1.13
2023-05-05T21:36:38.690Z,0.85
2023-05-05T21:39:06.194Z,0.45
2023-05-05T21:41:33.414Z,0.40
2023-05-05T21:44:00.725Z,0.40
2023-05-05T21:46:27.991Z,0.40
2023-05-05T21:48:55.253Z,0.40
2023-05-05T21:51:23.479Z,0.43
2023-05-05T21:53:50.680Z,0.30
2023-05-05T21:56:17.922Z,0.25
2023-05-05T21:58:45.106Z,0.43
2023-05-05T22:01:12.727Z,0.20
2023-05-05T22:03:42.179Z,0.30
2023-05-05T22:06:09.650Z,1.67
2023-05-05T22:08:36.833Z,1.05
2023-05-05T22:11:04.065Z,0.47
2023-05-05T22:13:31.288Z,0.57
2023-05-05T22:15:58.531Z,0.40
2023-05-05T22:18:25.900Z,0.60
2023-05-05T22:20:53.204Z,0.80
2023-05-05T22:23:20.416Z,0.50
2023-05-05T22:25:47.756Z,0.60
2023-05-05T22:28:14.961Z,1.85
2023-05-05T22:30:42.251Z,1.40
2023-05-05T22:33:09.562Z,1.08
2023-05-05T22:35:37.799Z,0.63
2023-05-05T22:38:05.266Z,0.57
2023-05-05T22:40:32.518Z,1.08
2023-05-05T22:42:59.725Z,0.68
2023-05-05T22:45:27.227Z,1.13
2023-05-05T22:47:55.069Z,0.60
2023-05-05T22:50:22.309Z,0.60
2023-05-05T22:52:49.501Z,0.75
2023-05-05T22:55:17.001Z,0.85
2023-05-05T22:57:44.240Z,0.75
2023-05-05T23:00:11.647Z,0.70
2023-05-05T23:02:39.041Z,0.88
2023-05-05T23:05:06.693Z,0.50
2023-05-05T23:07:33.884Z,1.05
2023-05-05T23:10:01.181Z,0.30
2023-05-05T23:12:28.415Z,0.75
2023-05-05T23:14:55.835Z,0.47
2023-05-05T23:17:23.173Z,0.90
2023-05-05T23:19:50.685Z,0.60
2023-05-05T23:22:17.871Z,0.40
2023-05-05T23:24:45.208Z,0.65
2023-05-05T23:27:13.287Z,0.88
2023-05-05T23:29:40.501Z,0.70
2023-05-05T23:32:07.769Z,0.55
2023-05-05T23:34:34.959Z,0.40
2023-05-05T23:37:03.443Z,0.50
2023-05-05T23:39:34.553Z,0.55
2023-05-05T23:42:01.748Z,0.85
2023-05-05T23:44:28.939Z,0.93
2023-05-05T23:46:56.164Z,1.13
2023-05-05T23:49:24.935Z,0.60
2023-05-05T23:51:52.131Z,0.60
2023-05-05T23:54:19.509Z,0.40
2023-05-05T23:56:47.796Z,0.30
2023-05-05T23:59:15.017Z,0.30
